createdAt,value
2023-04-29T00:01:27.069Z,3.50
2023-04-29T00:03:54.319Z,3.60
2023-04-29T00:06:22.600Z,3.08
2023-04-29T00:08:50.091Z,3.20
2023-04-29T00:11:16.997Z,3.38
2023-04-29T00:13:44.869Z,3.40
2023-04-29T00:16:11.905Z,3.80
2023-04-29T00:18:38.969Z,2.65
2023-04-29T00:21:06.316Z,3.10
2023-04-29T00:23:34.206Z,3.03
2023-04-29T00:26:01.362Z,3.30
2023-04-29T00:28:28.510Z,3.08
2023-04-29T00:30:56.278Z,3.28
2023-04-29T00:33:23.674Z,3.35
2023-04-29T00:35:51.390Z,3.45
2023-04-29T00:38:18.558Z,3.30
2023-04-29T00:40:45.979Z,3.10
2023-04-29T00:43:13.591Z,2.28
2023-04-29T00:45:40.660Z,2.85
2023-04-29T00:48:08.088Z,2.53
2023-04-29T00:50:36.923Z,2.97
2023-04-29T00:53:04.515Z,3.17
2023-04-29T00:55:33.460Z,2.92
2023-04-29T00:58:02.860Z,2.90
2023-04-29T01:00:30.922Z,2.85
2023-04-29T01:02:59.875Z,3.00
2023-04-29T01:05:27.919Z,3.58
2023-04-29T01:08:13.226Z,3.30
2023-04-29T01:11:09.711Z,3.00
2023-04-29T01:14:00.893Z,3.85
2023-04-29T01:16:38.128Z,2.88
2023-04-29T01:19:45.689Z,3.13
2023-04-29T01:22:14.686Z,3.13
2023-04-29T01:24:41.931Z,2.67
2023-04-29T01:27:24.390Z,2.40
2023-04-29T01:30:21.504Z,3.00
2023-04-29T01:33:01.238Z,2.75
2023-04-29T01:35:41.471Z,3.20
2023-04-29T01:38:23.824Z,2.55
2023-04-29T01:41:01.903Z,3.80
2023-04-29T01:43:32.944Z,2.60
2023-04-29T01:46:09.264Z,2.97
2023-04-29T01:48:37.600Z,2.63
2023-04-29T01:51:06.650Z,3.15
2023-04-29T01:53:33.905Z,2.78
2023-04-29T01:56:01.017Z,2.70
2023-04-29T01:58:44.705Z,2.75
2023-04-29T02:01:20.817Z,2.65
2023-04-29T02:03:48.383Z,3.38
2023-04-29T02:06:16.545Z,3.35
2023-04-29T02:08:45.725Z,2.70
2023-04-29T02:11:12.664Z,2.70
2023-04-29T02:13:41.779Z,3.42
2023-04-29T02:16:11.275Z,3.45
2023-04-29T02:18:42.844Z,2.70
2023-04-29T02:21:10.093Z,2.80
2023-04-29T02:23:37.136Z,3.08
2023-04-29T02:26:07.745Z,3.00
2023-04-29T02:28:35.278Z,3.53
2023-04-29T02:31:03.911Z,3.10
2023-04-29T02:33:31.552Z,3.42
2023-04-29T02:35:59.847Z,3.50
2023-04-29T02:38:26.997Z,3.40
2023-04-29T02:40:54.008Z,3.83
2023-04-29T02:43:21.984Z,3.75
2023-04-29T02:45:49.065Z,4.15
2023-04-29T02:48:17.225Z,4.22
2023-04-29T02:50:44.247Z,4.15
2023-04-29T02:53:11.312Z,3.95
2023-04-29T02:55:38.476Z,4.25
2023-04-29T02:58:09.279Z,3.80
2023-04-29T03:00:36.293Z,4.45
2023-04-29T03:03:03.540Z,4.05
2023-04-29T03:05:30.736Z,3.90
2023-04-29T03:07:58.202Z,3.97
2023-04-29T03:10:25.594Z,3.92
2023-04-29T03:12:52.580Z,3.38
2023-04-29T03:15:20.367Z,3.25
2023-04-29T03:17:47.482Z,3.33
2023-04-29T03:20:14.603Z,3.47
2023-04-29T03:22:41.576Z,3.72
2023-04-29T03:25:10.687Z,3.35
2023-04-29T03:27:39.538Z,4.07
2023-04-29T03:30:07.954Z,3.53
2023-04-29T03:32:38.481Z,3.40
2023-04-29T03:35:06.625Z,3.53
2023-04-29T03:37:39.172Z,5.40
2023-04-29T03:40:20.125Z,3.50
2023-04-29T03:42:48.912Z,3.58
2023-04-29T03:45:16.185Z,3.03
2023-04-29T03:47:43.749Z,3.55
2023-04-29T03:50:12.023Z,3.35
2023-04-29T03:52:40.273Z,3.58
2023-04-29T03:55:14.366Z,3.10
2023-04-29T03:57:42.844Z,3.50
2023-04-29T04:00:11.456Z,3.83
2023-04-29T04:02:45.178Z,3.60
2023-04-29T04:05:13.318Z,3.65
2023-04-29T04:07:44.315Z,3.47
2023-04-29T04:10:34.175Z,3.28
2023-04-29T04:13:04.571Z,5.40
2023-04-29T04:15:32.244Z,3.33
2023-04-29T04:18:00.027Z,3.25
2023-04-29T04:20:27.150Z,3.08
2023-04-29T04:22:55.063Z,3.40
2023-04-29T04:25:25.710Z,3.40
2023-04-29T04:27:58.290Z,3.17
2023-04-29T04:30:41.897Z,2.95
2023-04-29T04:33:09.326Z,2.85
2023-04-29T04:35:37.630Z,3.35
2023-04-29T04:38:04.796Z,3.30
2023-04-29T04:40:31.889Z,3.30
2023-04-29T04:43:19.118Z,3.15
2023-04-29T04:45:49.333Z,3.22
2023-04-29T04:48:16.558Z,3.00
2023-04-29T04:50:48.745Z,3.13
2023-04-29T04:53:17.489Z,2.92
2023-04-29T04:55:55.080Z,3.88
2023-04-29T04:58:22.435Z,3.30
2023-04-29T05:00:49.438Z,3.47
2023-04-29T05:03:17.085Z,3.50
2023-04-29T05:05:44.057Z,3.55
2023-04-29T05:08:11.483Z,3.70
2023-04-29T05:10:44.617Z,4.03
2023-04-29T05:13:12.840Z,3.17
2023-04-29T05:15:40.473Z,3.08
2023-04-29T05:18:08.974Z,2.58
2023-04-29T05:20:36.058Z,4.82
2023-04-29T05:23:04.074Z,3.00
2023-04-29T05:25:36.754Z,2.83
2023-04-29T05:28:04.784Z,3.67
2023-04-29T05:30:34.587Z,3.28
2023-04-29T05:33:01.917Z,3.58
2023-04-29T05:35:29.044Z,3.35
2023-04-29T05:37:56.117Z,3.53
2023-04-29T05:40:32.328Z,3.40
2023-04-29T05:43:16.546Z,3.75
2023-04-29T05:45:47.091Z,3.25
2023-04-29T05:48:14.364Z,3.65
2023-04-29T05:50:41.699Z,3.22
2023-04-29T05:53:08.909Z,3.58
2023-04-29T05:55:37.859Z,3.17
2023-04-29T05:58:05.007Z,2.95
2023-04-29T06:00:32.061Z,3.65
2023-04-29T06:03:07.457Z,4.65
2023-04-29T06:05:36.166Z,4.00
2023-04-29T06:08:28.326Z,3.28
2023-04-29T06:11:05.437Z,3.13
2023-04-29T06:13:33.270Z,3.67
2023-04-29T06:16:00.399Z,3.97
2023-04-29T06:18:32.044Z,3.50
2023-04-29T06:20:59.588Z,2.92
2023-04-29T06:23:26.725Z,3.72
2023-04-29T06:25:54.271Z,2.78
2023-04-29T06:28:22.096Z,3.10
2023-04-29T06:30:49.152Z,2.92
2023-04-29T06:33:16.550Z,3.55
2023-04-29T06:35:43.923Z,3.35
2023-04-29T06:38:43.441Z,3.10
2023-04-29T06:41:29.502Z,3.30
2023-04-29T06:43:59.404Z,2.83
2023-04-29T06:46:45.361Z,2.58
2023-04-29T06:49:43.895Z,3.15
2023-04-29T06:52:10.852Z,3.50
2023-04-29T06:54:37.822Z,3.47
2023-04-29T06:57:04.740Z,3.53
2023-04-29T06:59:31.722Z,3.35
2023-04-29T07:01:58.766Z,3.42
2023-04-29T07:04:26.151Z,3.97
2023-04-29T07:06:54.100Z,3.60
2023-04-29T07:09:21.151Z,4.28
2023-04-29T07:11:48.125Z,5.20
2023-04-29T07:14:15.251Z,3.50
2023-04-29T07:16:42.206Z,3.92
2023-04-29T07:19:10.797Z,3.28
2023-04-29T07:21:37.754Z,3.17
2023-04-29T07:24:05.449Z,3.50
2023-04-29T07:26:32.685Z,3.58
2023-04-29T07:28:59.588Z,4.32
2023-04-29T07:31:27.228Z,3.50
2023-04-29T07:33:55.332Z,3.40
2023-04-29T07:36:22.479Z,3.90
2023-04-29T07:38:49.502Z,3.72
2023-04-29T07:41:16.964Z,3.50
2023-04-29T07:43:44.272Z,3.80
2023-04-29T07:46:12.003Z,3.70
2023-04-29T07:48:40.180Z,3.33
2023-04-29T07:51:07.256Z,3.25
2023-04-29T07:53:34.435Z,3.90
2023-04-29T07:56:06.393Z,3.47
2023-04-29T07:58:33.707Z,3.72
2023-04-29T08:01:12.104Z,3.92
2023-04-29T08:03:41.978Z,4.10
2023-04-29T08:06:10.530Z,3.20
2023-04-29T08:08:37.656Z,3.45
2023-04-29T08:11:05.230Z,3.15
2023-04-29T08:13:32.567Z,3.38
2023-04-29T08:16:01.229Z,3.15
2023-04-29T08:18:28.276Z,3.10
2023-04-29T08:20:55.216Z,3.28
2023-04-29T08:23:22.097Z,2.58
2023-04-29T08:25:51.971Z,2.72
2023-04-29T08:28:19.719Z,2.53
2023-04-29T08:30:46.848Z,3.05
2023-04-29T08:33:14.683Z,2.60
2023-04-29T08:35:42.187Z,2.78
2023-04-29T08:38:10.238Z,2.95
2023-04-29T08:40:42.678Z,2.67
2023-04-29T08:43:10.693Z,2.38
2023-04-29T08:45:39.803Z,3.40
2023-04-29T08:48:10.477Z,2.90
2023-04-29T08:50:40.252Z,2.70
2023-04-29T08:53:11.865Z,2.72
2023-04-29T08:55:43.879Z,2.45
2023-04-29T08:58:12.262Z,2.50
2023-04-29T09:00:40.949Z,2.72
2023-04-29T09:03:22.852Z,2.47
2023-04-29T09:05:54.982Z,2.40
2023-04-29T09:08:24.204Z,2.88
2023-04-29T09:10:55.214Z,2.45
2023-04-29T09:13:30.323Z,2.63
2023-04-29T09:15:57.770Z,2.85
2023-04-29T09:18:50.519Z,2.80
2023-04-29T09:21:25.458Z,3.08
2023-04-29T09:23:57.360Z,2.95
2023-04-29T09:26:25.240Z,2.72
2023-04-29T09:29:09.546Z,3.15
2023-04-29T09:31:38.207Z,2.95
2023-04-29T09:34:05.660Z,2.85
2023-04-29T09:36:37.882Z,2.85
2023-04-29T09:39:12.776Z,3.22
2023-04-29T09:41:40.689Z,3.92
2023-04-29T09:44:08.988Z,3.30
2023-04-29T09:46:36.950Z,2.83
2023-04-29T09:49:07.037Z,4.10
2023-04-29T09:51:52.137Z,4.55
2023-04-29T09:54:24.202Z,3.20
2023-04-29T09:56:53.488Z,3.72
2023-04-29T09:59:21.450Z,2.60
2023-04-29T10:01:53.213Z,3.33
2023-04-29T10:04:22.028Z,3.38
2023-04-29T10:06:51.731Z,4.30
2023-04-29T10:09:20.043Z,3.60
2023-04-29T10:11:49.596Z,3.63
2023-04-29T10:14:21.705Z,3.72
2023-04-29T10:17:10.064Z,4.45
2023-04-29T10:19:45.334Z,3.85
2023-04-29T10:22:17.309Z,4.05
2023-04-29T10:24:44.635Z,3.83
2023-04-29T10:27:13.278Z,3.30
2023-04-29T10:29:41.803Z,3.65
2023-04-29T10:32:10.926Z,3.53
2023-04-29T10:34:41.560Z,3.80
2023-04-29T10:37:10.540Z,3.17
2023-04-29T10:39:53.136Z,3.05
2023-04-29T10:42:44.578Z,2.90
2023-04-29T10:45:23.688Z,5.03
2023-04-29T10:48:09.215Z,3.55
2023-04-29T10:50:48.200Z,3.60
2023-04-29T10:53:16.974Z,3.50
2023-04-29T10:55:48.995Z,3.22
2023-04-29T10:58:37.771Z,3.15
2023-04-29T11:01:05.702Z,3.88
2023-04-29T11:03:55.052Z,3.65
2023-04-29T11:06:42.864Z,3.55
2023-04-29T11:09:31.389Z,3.58
2023-04-29T11:12:09.680Z,4.35
2023-04-29T11:14:40.538Z,2.63
2023-04-29T11:17:13.681Z,2.88
2023-04-29T11:19:46.482Z,3.90
2023-04-29T11:22:18.282Z,3.22
2023-04-29T11:25:02.578Z,4.75
2023-04-29T11:27:34.799Z,3.67
2023-04-29T11:30:05.233Z,3.08
2023-04-29T11:32:35.034Z,3.10
2023-04-29T11:35:12.472Z,3.63
2023-04-29T11:37:40.948Z,2.65
2023-04-29T11:40:09.383Z,4.03
2023-04-29T11:42:40.908Z,4.32
2023-04-29T11:45:08.358Z,3.28
2023-04-29T11:47:35.404Z,3.88
2023-04-29T11:50:10.698Z,3.63
2023-04-29T11:52:39.479Z,2.97
2023-04-29T11:55:09.445Z,3.72
2023-04-29T11:57:36.854Z,3.67
2023-04-29T12:00:06.165Z,3.20
2023-04-29T12:02:35.709Z,3.20
2023-04-29T12:05:08.081Z,2.88
2023-04-29T12:07:37.252Z,2.83
2023-04-29T12:10:08.024Z,4.88
2023-04-29T12:12:36.495Z,3.17
2023-04-29T12:15:05.533Z,3.72
2023-04-29T12:17:32.932Z,3.08
2023-04-29T12:20:00.140Z,3.20
2023-04-29T12:22:33.588Z,3.90
2023-04-29T12:25:03.194Z,3.50
2023-04-29T12:27:31.792Z,3.70
2023-04-29T12:29:58.792Z,3.45
2023-04-29T12:32:25.920Z,3.72
2023-04-29T12:34:53.512Z,3.42
2023-04-29T12:37:23.782Z,3.85
2023-04-29T12:39:51.567Z,2.85
2023-04-29T12:42:18.581Z,3.38
2023-04-29T12:44:48.854Z,3.65
2023-04-29T12:47:17.049Z,3.53
2023-04-29T12:49:46.159Z,3.55
2023-04-29T12:52:13.699Z,3.45
2023-04-29T12:54:44.346Z,3.83
2023-04-29T12:57:12.312Z,3.60
2023-04-29T12:59:41.378Z,3.90
2023-04-29T13:02:09.241Z,4.32
2023-04-29T13:04:36.542Z,3.47
2023-04-29T13:07:04.563Z,3.67
2023-04-29T13:09:31.688Z,3.83
2023-04-29T13:11:59.697Z,3.28
2023-04-29T13:14:27.133Z,2.95
2023-04-29T13:16:54.317Z,3.17
2023-04-29T13:21:52.408Z,2.65
2023-04-29T13:24:20.379Z,3.13
2023-04-29T13:26:49.654Z,2.45
2023-04-29T13:29:18.728Z,3.05
2023-04-29T13:31:45.863Z,3.22
2023-04-29T13:34:12.950Z,3.38
2023-04-29T13:36:40.098Z,2.42
2023-04-29T13:39:07.406Z,4.28
2023-04-29T13:41:35.717Z,2.90
2023-04-29T13:44:04.919Z,4.38
2023-04-29T13:46:34.772Z,2.75
2023-04-29T13:49:31.932Z,2.78
2023-04-29T14:04:21.971Z,2.72
2023-04-29T14:06:49.009Z,2.10
2023-04-29T14:09:18.085Z,2.38
2023-04-29T14:11:44.967Z,2.67
2023-04-29T14:14:11.850Z,2.38
2023-04-29T14:16:39.105Z,2.70
2023-04-29T14:19:06.546Z,2.88
2023-04-29T14:21:33.907Z,2.60
2023-04-29T14:24:02.741Z,2.83
2023-04-29T14:26:31.176Z,2.20
2023-04-29T14:29:00.121Z,2.50
2023-04-29T14:31:29.490Z,2.35
2023-04-29T14:33:57.969Z,2.67
2023-04-29T14:36:26.876Z,2.38
2023-04-29T14:38:54.228Z,2.80
2023-04-29T14:41:23.900Z,2.35
2023-04-29T14:43:52.380Z,1.55
2023-04-29T14:46:20.431Z,2.20
2023-04-29T14:48:47.794Z,2.70
2023-04-29T14:51:17.299Z,1.85
2023-04-29T14:53:44.544Z,2.95
2023-04-29T14:56:11.678Z,2.97
2023-04-29T14:58:38.804Z,2.35
2023-04-29T15:01:06.578Z,2.20
2023-04-29T15:03:33.647Z,2.33
2023-04-29T15:06:04.366Z,3.42
2023-04-29T15:08:31.704Z,3.17
2023-04-29T15:10:59.056Z,2.70
2023-04-29T15:13:26.347Z,2.97
2023-04-29T15:15:53.390Z,3.03
2023-04-29T15:18:23.358Z,2.95
2023-04-29T15:20:53.890Z,2.35
2023-04-29T15:23:20.842Z,3.55
2023-04-29T15:25:48.013Z,2.78
2023-04-29T15:28:18.018Z,2.95
2023-04-29T15:30:45.442Z,2.47
2023-04-29T15:33:12.507Z,2.72
2023-04-29T15:35:39.541Z,3.08
2023-04-29T15:38:07.215Z,2.50
2023-04-29T15:40:34.233Z,3.20
2023-04-29T15:43:01.584Z,2.90
2023-04-29T15:45:28.642Z,2.30
2023-04-29T15:47:57.254Z,2.90
2023-04-29T15:50:24.223Z,2.67
2023-04-29T15:52:55.201Z,3.22
2023-04-29T15:55:22.628Z,2.75
2023-04-29T15:57:51.494Z,2.33
2023-04-29T16:00:19.189Z,2.75
2023-04-29T16:02:46.865Z,2.47
2023-04-29T16:05:13.984Z,3.60
2023-04-29T16:07:40.970Z,2.92
2023-04-29T16:10:08.194Z,2.78
2023-04-29T16:12:35.068Z,2.92
2023-04-29T16:15:02.174Z,2.70
2023-04-29T16:17:29.799Z,2.85
2023-04-29T16:19:56.900Z,3.03
2023-04-29T16:22:23.949Z,2.53
2023-04-29T16:24:51.306Z,2.53
2023-04-29T16:27:18.295Z,2.17
2023-04-29T16:29:52.894Z,2.70
2023-04-29T16:32:22.789Z,2.50
2023-04-29T16:34:49.734Z,3.67
2023-04-29T16:37:16.765Z,3.28
2023-04-29T16:39:43.887Z,2.80
2023-04-29T16:42:11.389Z,2.75
2023-04-29T16:44:38.337Z,2.60
2023-04-29T16:47:05.554Z,2.20
2023-04-29T16:49:32.498Z,2.58
2023-04-29T16:51:59.416Z,2.67
2023-04-29T16:54:27.783Z,2.10
2023-04-29T16:56:54.747Z,2.78
2023-04-29T16:59:21.783Z,2.55
2023-04-29T17:01:49.063Z,2.97
2023-04-29T17:04:16.290Z,2.80
2023-04-29T17:06:43.694Z,2.55
2023-04-29T17:09:11.575Z,2.08
2023-04-29T17:11:38.604Z,2.33
2023-04-29T17:14:05.760Z,2.30
2023-04-29T17:16:33.297Z,2.03
2023-04-29T17:19:00.351Z,2.40
2023-04-29T17:21:29.385Z,2.25
2023-04-29T17:23:56.800Z,2.90
2023-04-29T17:26:24.050Z,2.72
2023-04-29T17:28:51.026Z,2.30
2023-04-29T17:31:22.758Z,2.00
2023-04-29T17:33:55.643Z,2.47
2023-04-29T17:36:22.844Z,3.05
2023-04-29T17:38:49.946Z,1.80
2023-04-29T17:41:16.909Z,2.53
2023-04-29T17:43:43.780Z,2.30
2023-04-29T17:46:10.802Z,1.98
2023-04-29T17:48:37.998Z,2.13
2023-04-29T17:51:05.111Z,1.88
2023-04-29T17:53:33.359Z,1.90
2023-04-29T17:56:00.248Z,2.13
2023-04-29T17:58:29.065Z,1.88
2023-04-29T18:00:56.873Z,2.45
2023-04-29T18:03:27.405Z,3.10
2023-04-29T18:05:54.600Z,2.20
2023-04-29T18:08:23.577Z,1.80
2023-04-29T18:10:50.743Z,2.60
2023-04-29T18:13:17.968Z,2.25
2023-04-29T18:15:50.289Z,1.75
2023-04-29T18:18:18.423Z,2.00
2023-04-29T18:20:45.533Z,1.98
2023-04-29T18:23:15.204Z,2.22
2023-04-29T18:25:42.259Z,1.50
2023-04-29T18:28:24.158Z,2.08
2023-04-29T18:30:53.504Z,1.95
2023-04-29T18:33:20.544Z,1.88
2023-04-29T18:35:47.610Z,1.90
2023-04-29T18:38:17.562Z,2.58
2023-04-29T18:40:44.936Z,1.92
2023-04-29T18:43:15.368Z,1.73
2023-04-29T18:45:45.195Z,2.38
2023-04-29T18:48:13.115Z,2.05
2023-04-29T18:50:42.830Z,1.40
2023-04-29T18:53:09.915Z,1.67
2023-04-29T18:55:37.046Z,2.10
2023-04-29T18:58:04.482Z,2.65
2023-04-29T19:00:31.570Z,1.75
2023-04-29T19:02:58.974Z,2.00
2023-04-29T19:05:28.312Z,2.45
2023-04-29T19:07:55.483Z,1.65
2023-04-29T19:10:22.408Z,1.80
2023-04-29T19:12:49.452Z,1.70
2023-04-29T19:15:17.808Z,2.00
2023-04-29T19:17:44.843Z,2.30
2023-04-29T19:20:12.222Z,2.13
2023-04-29T19:22:39.336Z,1.80
2023-04-29T19:25:06.779Z,2.05
2023-04-29T19:27:33.718Z,2.35
2023-04-29T19:30:00.699Z,2.00
2023-04-29T19:32:30.181Z,2.63
2023-04-29T19:34:57.585Z,3.00
2023-04-29T19:37:25.026Z,3.15
2023-04-29T19:39:53.106Z,3.92
2023-04-29T19:42:20.363Z,3.97
2023-04-29T19:44:47.616Z,4.78
2023-04-29T19:47:14.733Z,4.13
2023-04-29T19:49:41.924Z,3.50
2023-04-29T19:52:08.974Z,3.78
2023-04-29T19:54:36.080Z,4.28
2023-04-29T19:57:03.224Z,4.47
2023-04-29T19:59:30.176Z,3.20
2023-04-29T20:01:57.301Z,4.22
2023-04-29T20:04:25.617Z,5.88
2023-04-29T20:06:52.573Z,4.85
2023-04-29T20:09:19.774Z,5.07
2023-04-29T20:11:47.117Z,4.50
2023-04-29T20:14:14.049Z,5.38
2023-04-29T20:16:41.289Z,7.35
2023-04-29T20:19:08.299Z,8.43
2023-04-29T20:21:35.686Z,14.23
2023-04-29T20:24:02.605Z,13.75
2023-04-29T20:26:30.165Z,19.50
2023-04-29T20:28:57.193Z,26.42
2023-04-29T20:31:24.210Z,31.58
2023-04-29T20:33:51.501Z,19.80
2023-04-29T20:36:18.833Z,24.02
2023-04-29T20:38:46.627Z,27.42
2023-04-29T20:41:13.662Z,17.73
2023-04-29T20:43:41.440Z,49.00
2023-04-29T20:46:08.390Z,23.20
2023-04-29T20:48:35.373Z,7.15
2023-04-29T20:51:02.268Z,19.70
2023-04-29T20:53:29.304Z,56.85
2023-04-29T20:55:56.302Z,9.57
2023-04-29T20:58:24.030Z,12.60
2023-04-29T21:00:51.571Z,9.55
2023-04-29T21:03:20.917Z,9.07
2023-04-29T21:05:47.984Z,8.77
2023-04-29T21:08:14.932Z,8.70
2023-04-29T21:10:41.893Z,7.63
2023-04-29T21:13:09.837Z,10.48
2023-04-29T21:15:37.632Z,15.68
2023-04-29T21:18:06.063Z,15.02
2023-04-29T21:20:33.307Z,14.57
2023-04-29T21:23:00.259Z,9.25
2023-04-29T21:25:27.653Z,15.95
2023-04-29T21:27:54.720Z,14.13
2023-04-29T21:30:21.831Z,8.00
2023-04-29T21:32:48.954Z,4.63
2023-04-29T21:35:16.854Z,3.25
2023-04-29T21:37:47.370Z,3.58
2023-04-29T21:40:14.738Z,3.70
2023-04-29T21:42:43.668Z,4.03
2023-04-29T21:45:15.656Z,3.78
2023-04-29T21:47:43.567Z,3.72
2023-04-29T21:50:11.421Z,3.67
2023-04-29T21:52:38.604Z,3.70
2023-04-29T21:55:06.443Z,3.25
2023-04-29T21:57:43.422Z,3.08
2023-04-29T22:00:27.872Z,3.38
2023-04-29T22:02:55.430Z,3.60
2023-04-29T22:05:22.482Z,3.15
2023-04-29T22:07:49.629Z,3.45
2023-04-29T22:10:16.685Z,4.25
2023-04-29T22:12:43.720Z,3.65
2023-04-29T22:15:24.545Z,4.13
2023-04-29T22:17:54.974Z,5.18
2023-04-29T22:20:22.223Z,5.55
2023-04-29T22:22:49.373Z,7.18
2023-04-29T22:25:16.293Z,5.88
2023-04-29T22:27:44.174Z,5.70
2023-04-29T22:30:11.593Z,6.05
2023-04-29T22:32:38.677Z,4.63
2023-04-29T22:35:06.286Z,4.95
2023-04-29T22:37:33.328Z,4.78
2023-04-29T22:40:00.405Z,4.72
2023-04-29T22:42:27.610Z,4.38
2023-04-29T22:44:54.628Z,3.30
2023-04-29T22:47:21.774Z,1.40
2023-04-29T22:49:48.658Z,1.50
2023-04-29T22:52:15.571Z,1.55
2023-04-29T22:54:42.716Z,1.50
2023-04-29T22:57:09.722Z,1.85
2023-04-29T22:59:36.712Z,1.60
2023-04-29T23:02:03.633Z,1.90
2023-04-29T23:04:32.422Z,1.90
2023-04-29T23:06:59.393Z,2.40
2023-04-29T23:09:26.678Z,3.83
2023-04-29T23:11:53.618Z,2.30
2023-04-29T23:14:21.778Z,2.38
2023-04-29T23:16:49.844Z,2.03
2023-04-29T23:19:16.805Z,1.42
2023-04-29T23:21:43.729Z,1.70
2023-04-29T23:24:11.025Z,1.33
2023-04-29T23:26:37.902Z,1.52
2023-04-29T23:29:04.853Z,1.10
2023-04-29T23:31:31.824Z,1.50
2023-04-29T23:33:59.696Z,1.33
2023-04-29T23:36:27.685Z,1.58
2023-04-29T23:38:54.715Z,2.40
2023-04-29T23:41:21.635Z,2.03
2023-04-29T23:43:48.649Z,1.95
2023-04-29T23:46:15.549Z,2.40
2023-04-29T23:48:42.446Z,1.70
2023-04-29T23:51:09.841Z,1.77
2023-04-29T23:53:38.678Z,2.10
2023-04-29T23:56:06.176Z,2.15
2023-04-29T23:58:33.183Z,1.85
